Terminal Aerodrome Forecast
Issued by NWS

Home | Current Version | Previous Version | Text Only | Print | Product List | Glossary On
Versions: 1 2 3 4 5 6 7 8 9 10 11 12 13 14 15 16 17 18 19 20 21 22 23 24 25 26 27 28 29 30 31 32 33 34 35 36 37 38 39 40 41 42 43 44
000
FTUS45 KBOU 232324
TAFAPA
TAF
KAPA 232324Z 2400/2424 02010KT P6SM FEW060 SCT110
     FM240400 12005KT P6SM FEW110 SCT220
     FM240500 21008KT P6SM FEW120 SCT200
     FM241600 25008KT P6SM SCT120
     FM241800 31011KT P6SM FEW090 SCT120=

USA.gov is the U.S. government's official web portal to all federal, state and local government web resources and services.